Time;durP1;ratioP1;P1;durP2;ratioP2;P2;SDS_P1;SDS_P2;PMS_P1;PMS_P2;Temp;Humidity;BMP_temperature;BMP_pressure;BME280_temperature;BME280_humidity;BME280_pressure;Samples;Min_cycle;Max_cycle;Signal;HPM_P1;HPM_P2
2022/08/14 00:00:44;;;;;;;6.32;3.35;;;;;;;;;;5021387;28;20053;-70
2022/08/14 00:03:25;;;;;;;8.38;3.75;;;;;;;;;;4988132;28;20634;-69
2022/08/14 00:06:00;;;;;;;7.93;3.65;;;;;;;;;;4988688;28;20069;-69
2022/08/14 00:08:50;;;;;;;6.65;3.78;;;;;;;;;;5045646;28;20053;-68
2022/08/14 00:11:20;;;;;;;6.32;3.50;;;;;;;;;;5047561;28;20069;-67
2022/08/14 00:13:51;;;;;;;6.07;3.35;;;;;;;;;;5047688;28;20049;-67
2022/08/14 00:16:21;;;;;;;8.13;3.45;;;;;;;;;;5011333;28;20053;-67
2022/08/14 00:19:13;;;;;;;7.45;3.05;;;;;;;;;;5007622;28;20065;-68
2022/08/14 00:21:51;;;;;;;5.63;2.95;;;;;;;;;;5047531;28;20056;-68
2022/08/14 00:24:23;;;;;;;7.03;3.15;;;;;;;;;;5047521;28;20061;-68
2022/08/14 00:26:59;;;;;;;13.50;3.70;;;;;;;;;;5051418;28;20049;-67
2022/08/14 00:29:31;;;;;;;7.93;3.45;;;;;;;;;;5031112;28;20054;-67
2022/08/14 00:32:12;;;;;;;9.38;3.40;;;;;;;;;;5016393;28;20058;-70
2022/08/14 00:35:07;;;;;;;8.25;3.20;;;;;;;;;;4997762;28;20057;-69
2022/08/14 00:37:43;;;;;;;7.95;3.42;;;;;;;;;;5011544;28;20054;-72
2022/08/14 00:40:17;;;;;;;7.20;2.75;;;;;;;;;;4972131;28;20439;-68
2022/08/14 00:43:01;;;;;;;14.00;3.88;;;;;;;;;;4940261;28;20046;-72
2022/08/14 00:45:32;;;;;;;7.57;3.33;;;;;;;;;;4940141;28;20047;-67
2022/08/14 00:48:05;;;;;;;8.48;3.25;;;;;;;;;;4956875;28;20055;-69
2022/08/14 00:50:36;;;;;;;7.78;4.28;;;;;;;;;;4952607;28;20062;-69
2022/08/14 00:53:08;;;;;;;6.13;3.25;;;;;;;;;;4955222;28;20055;-68
2022/08/14 00:55:40;;;;;;;9.88;3.65;;;;;;;;;;4971682;28;20066;-70
2022/08/14 01:01:10;;;;;;;7.38;3.53;;;;;;;;;;4972056;28;20047;-68
2022/08/14 01:03:41;;;;;;;10.27;4.05;;;;;;;;;;4971971;28;20074;-68
2022/08/14 01:06:15;;;;;;;7.90;2.92;;;;;;;;;;4937393;28;20404;-69
2022/08/14 01:08:49;;;;;;;6.78;2.97;;;;;;;;;;4971787;28;20408;-67
2022/08/14 01:11:27;;;;;;;11.93;3.85;;;;;;;;;;4971613;28;20054;-67
2022/08/14 01:14:00;;;;;;;8.00;4.00;;;;;;;;;;4975158;28;20066;-68
2022/08/14 01:16:51;;;;;;;8.65;3.78;;;;;;;;;;4992438;28;20069;-70
2022/08/14 01:22:17;;;;;;;11.10;3.72;;;;;;;;;;4971082;28;20043;-68
2022/08/14 01:24:47;;;;;;;10.10;3.47;;;;;;;;;;4932978;29;20389;-68
2022/08/14 01:27:20;;;;;;;7.22;3.70;;;;;;;;;;4891156;29;20061;-69
2022/08/14 01:29:55;;;;;;;6.55;3.85;;;;;;;;;;4845583;29;20057;-68
2022/08/14 01:32:33;;;;;;;6.68;3.55;;;;;;;;;;4879635;29;20056;-67
2022/08/14 01:35:10;;;;;;;10.25;3.85;;;;;;;;;;4909605;29;20060;-68
2022/08/14 01:38:01;;;;;;;7.22;2.70;;;;;;;;;;4893995;29;20445;-68
2022/08/14 01:40:34;;;;;;;9.70;3.85;;;;;;;;;;4910127;29;20057;-68
2022/08/14 01:43:16;;;;;;;11.05;4.10;;;;;;;;;;4932394;29;20051;-68
2022/08/14 01:45:56;;;;;;;8.65;3.88;;;;;;;;;;4932794;29;20066;-67
2022/08/14 01:48:35;;;;;;;8.38;3.80;;;;;;;;;;4918624;29;20053;-68
2022/08/14 01:51:07;;;;;;;7.75;3.55;;;;;;;;;;4932208;29;20064;-69
2022/08/14 01:53:54;;;;;;;6.85;2.60;;;;;;;;;;4932535;29;20424;-68
2022/08/14 01:56:38;;;;;;;7.40;3.45;;;;;;;;;;4936915;28;20059;-69
2022/08/14 01:59:21;;;;;;;7.97;3.92;;;;;;;;;;4955109;28;20067;-68
2022/08/14 02:02:13;;;;;;;10.93;4.50;;;;;;;;;;4948587;28;20062;-70
2022/08/14 02:04:47;;;;;;;7.88;3.90;;;;;;;;;;4943498;28;20064;-67
2022/08/14 02:07:25;;;;;;;9.60;3.20;;;;;;;;;;4932414;29;20440;-67
2022/08/14 02:10:16;;;;;;;9.50;4.90;;;;;;;;;;4932224;29;20055;-68
2022/08/14 02:13:17;;;;;;;10.25;3.97;;;;;;;;;;4931696;29;20055;-69
2022/08/14 02:15:50;;;;;;;9.25;4.00;;;;;;;;;;4931566;29;20590;-68
2022/08/14 02:18:20;;;;;;;9.15;3.97;;;;;;;;;;4900501;29;20052;-68
2022/08/14 02:20:51;;;;;;;8.13;3.92;;;;;;;;;;4931964;29;20059;-68
2022/08/14 02:23:23;;;;;;;8.30;4.18;;;;;;;;;;4912838;29;20048;-68
2022/08/14 02:26:05;;;;;;;8.75;4.32;;;;;;;;;;4895222;29;20064;-69
2022/08/14 02:28:58;;;;;;;8.63;3.60;;;;;;;;;;4931880;29;20537;-69
2022/08/14 02:31:35;;;;;;;11.95;3.28;;;;;;;;;;4915854;29;20405;-69
2022/08/14 02:34:41;;;;;;;9.35;5.32;;;;;;;;;;4931530;29;20056;-68
2022/08/14 02:37:14;;;;;;;8.02;3.40;;;;;;;;;;4932008;29;20497;-69
2022/08/14 02:39:46;;;;;;;11.43;4.28;;;;;;;;;;4931759;29;20060;-68
2022/08/14 02:42:20;;;;;;;8.68;4.20;;;;;;;;;;4900422;29;20082;-72
2022/08/14 02:44:51;;;;;;;8.77;3.95;;;;;;;;;;4912096;29;20059;-70
2022/08/14 02:47:21;;;;;;;8.93;4.45;;;;;;;;;;4917573;29;20060;-69
2022/08/14 02:49:54;;;;;;;9.88;3.97;;;;;;;;;;4942900;28;20055;-69
2022/08/14 02:52:26;;;;;;;9.60;4.72;;;;;;;;;;4970109;28;20090;-70
2022/08/14 02:55:19;;;;;;;7.55;4.18;;;;;;;;;;4969748;28;20051;-73
2022/08/14 02:57:50;;;;;;;9.45;4.18;;;;;;;;;;4970070;28;20054;-69
2022/08/14 03:00:34;;;;;;;7.95;3.90;;;;;;;;;;4975601;28;20058;-69
2022/08/14 03:03:15;;;;;;;9.35;4.13;;;;;;;;;;4988846;28;20052;-69
2022/08/14 03:05:50;;;;;;;13.25;3.97;;;;;;;;;;4950598;29;20066;-71
2022/08/14 03:08:26;;;;;;;8.00;3.85;;;;;;;;;;4896206;29;20059;-69
2022/08/14 03:11:05;;;;;;;7.93;3.13;;;;;;;;;;4931528;29;20408;-69
2022/08/14 03:13:41;;;;;;;9.07;4.05;;;;;;;;;;4949792;28;20066;-69
2022/08/14 03:16:24;;;;;;;10.20;3.95;;;;;;;;;;4934513;28;20419;-69
2022/08/14 03:18:59;;;;;;;12.02;4.35;;;;;;;;;;4950440;28;20062;-70
2022/08/14 03:21:32;;;;;;;9.80;3.97;;;;;;;;;;4934222;28;20047;-69
2022/08/14 03:24:11;;;;;;;11.27;4.00;;;;;;;;;;4953169;28;20066;-69
2022/08/14 03:26:55;;;;;;;9.35;3.85;;;;;;;;;;4969158;28;20051;-69
2022/08/14 03:29:28;;;;;;;9.30;3.97;;;;;;;;;;4969238;28;20054;-69
2022/08/14 03:32:05;;;;;;;8.15;3.83;;;;;;;;;;4969006;28;20066;-70
2022/08/14 03:34:37;;;;;;;9.57;3.55;;;;;;;;;;4969330;28;20055;-69
2022/08/14 03:37:19;;;;;;;8.70;2.97;;;;;;;;;;4930532;29;20442;-70
2022/08/14 03:40:11;;;;;;;7.97;4.13;;;;;;;;;;4947795;28;20054;-70
2022/08/14 03:42:46;;;;;;;8.90;3.80;;;;;;;;;;4917902;28;20059;-71
2022/08/14 03:45:17;;;;;;;7.30;3.67;;;;;;;;;;4949820;28;20058;-69
2022/08/14 03:48:14;;;;;;;8.10;3.95;;;;;;;;;;4982928;28;20054;-72
2022/08/14 03:50:59;;;;;;;9.88;3.95;;;;;;;;;;5012335;28;20064;-70
2022/08/14 03:53:30;;;;;;;10.48;5.68;;;;;;;;;;5046474;28;20745;-70
2022/08/14 03:56:13;;;;;;;7.50;4.03;;;;;;;;;;5047738;28;20057;-69
2022/08/14 03:58:51;;;;;;;8.85;4.00;;;;;;;;;;5028731;28;20073;-69
2022/08/14 04:01:23;;;;;;;10.15;4.30;;;;;;;;;;4991646;28;20047;-69
2022/08/14 04:04:08;;;;;;;8.32;4.50;;;;;;;;;;4992269;28;20061;-70
2022/08/14 04:06:39;;;;;;;10.95;4.18;;;;;;;;;;4992409;28;20066;-69
2022/08/14 04:09:17;;;;;;;7.43;4.18;;;;;;;;;;5008120;28;20054;-69
2022/08/14 04:11:47;;;;;;;7.50;4.15;;;;;;;;;;4992357;28;20566;-70
2022/08/14 04:14:18;;;;;;;7.32;3.85;;;;;;;;;;4996495;28;20054;-70
2022/08/14 04:16:51;;;;;;;7.43;3.35;;;;;;;;;;5013729;28;20062;-70
2022/08/14 04:19:22;;;;;;;7.35;3.65;;;;;;;;;;5031350;28;20064;-70
2022/08/14 04:22:01;;;;;;;9.90;3.58;;;;;;;;;;4992179;28;20067;-70
2022/08/14 04:24:33;;;;;;;10.70;4.05;;;;;;;;;;4992462;28;20498;-70
2022/08/14 04:27:09;;;;;;;8.15;3.85;;;;;;;;;;4998689;28;20060;-71
2022/08/14 04:29:42;;;;;;;9.25;3.90;;;;;;;;;;4998873;28;20054;-71
2022/08/14 04:32:14;;;;;;;6.97;3.53;;;;;;;;;;4991645;28;20054;-70
2022/08/14 04:35:04;;;;;;;8.90;4.28;;;;;;;;;;4991882;28;20049;-71
2022/08/14 04:43:36;;;;;;;7.38;3.63;;;;;;;;;;4991572;28;20047;-70
2022/08/14 04:46:18;;;;;;;5.95;3.42;;;;;;;;;;4968365;28;20196;-69
2022/08/14 04:49:10;;;;;;;7.88;4.25;;;;;;;;;;4952811;28;20062;-71
2022/08/14 04:51:43;;;;;;;7.43;3.42;;;;;;;;;;4953023;29;20444;-69
2022/08/14 04:54:27;;;;;;;6.32;2.67;;;;;;;;;;4952867;29;20408;-70
2022/08/14 04:56:58;;;;;;;6.68;3.65;;;;;;;;;;4952936;29;20047;-70
2022/08/14 04:59:36;;;;;;;6.85;3.10;;;;;;;;;;4971930;28;20081;-69
2022/08/14 05:02:16;;;;;;;6.72;2.72;;;;;;;;;;4991580;28;20411;-69
2022/08/14 05:04:47;;;;;;;9.35;3.80;;;;;;;;;;5014599;28;20061;-69
2022/08/14 05:07:26;;;;;;;7.85;3.80;;;;;;;;;;4997936;28;20062;-69
2022/08/14 05:10:24;;;;;;;7.75;3.60;;;;;;;;;;5030541;28;20524;-71
2022/08/14 05:13:04;;;;;;;9.15;3.90;;;;;;;;;;5029544;28;20516;-71
2022/08/14 05:15:43;;;;;;;7.93;3.60;;;;;;;;;;4997665;28;20049;-70
2022/08/14 05:18:21;;;;;;;9.85;3.85;;;;;;;;;;5010394;28;20057;-71
2022/08/14 05:21:12;;;;;;;6.28;3.22;;;;;;;;;;5021451;28;20057;-70
2022/08/14 05:24:03;;;;;;;6.40;3.45;;;;;;;;;;5030241;28;20531;-72
2022/08/14 05:26:33;;;;;;;9.30;2.67;;;;;;;;;;4923125;28;20439;-71
2022/08/14 05:29:05;;;;;;;7.50;3.90;;;;;;;;;;4939805;28;20070;-70
2022/08/14 05:31:40;;;;;;;6.93;3.60;;;;;;;;;;4971422;28;20066;-70
2022/08/14 05:34:10;;;;;;;8.70;3.97;;;;;;;;;;4971414;28;20066;-69
2022/08/14 05:36:42;;;;;;;8.10;3.67;;;;;;;;;;4986782;28;20047;-70
2022/08/14 05:39:31;;;;;;;8.13;3.70;;;;;;;;;;4990544;28;20050;-70
2022/08/14 05:42:03;;;;;;;8.45;3.72;;;;;;;;;;4990693;28;20061;-70
2022/08/14 05:44:49;;;;;;;10.73;3.85;;;;;;;;;;4990579;28;20046;-70
2022/08/14 05:47:26;;;;;;;9.00;3.58;;;;;;;;;;4970914;28;20055;-70
2022/08/14 05:50:02;;;;;;;8.48;3.63;;;;;;;;;;4971082;28;20066;-70
2022/08/14 05:52:38;;;;;;;9.57;3.80;;;;;;;;;;4978482;28;20061;-72
2022/08/14 05:55:10;;;;;;;7.05;4.05;;;;;;;;;;4961372;28;20053;-69
2022/08/14 05:57:54;;;;;;;7.40;3.65;;;;;;;;;;4974061;28;20673;-71
2022/08/14 06:00:40;;;;;;;7.20;4.07;;;;;;;;;;4958322;28;20050;-70
2022/08/14 06:03:15;;;;;;;9.07;3.97;;;;;;;;;;4974795;28;20061;-70
2022/08/14 06:05:58;;;;;;;9.13;3.25;;;;;;;;;;5033972;28;20410;-70
2022/08/14 06:08:40;;;;;;;6.88;3.53;;;;;;;;;;5049490;28;20061;-69
2022/08/14 06:11:11;;;;;;;10.85;3.53;;;;;;;;;;5049688;28;20045;-69
2022/08/14 06:13:59;;;;;;;9.05;3.72;;;;;;;;;;5042028;28;20068;-70
2022/08/14 06:16:31;;;;;;;6.93;3.83;;;;;;;;;;4976847;28;20057;-69
2022/08/14 06:19:05;;;;;;;8.90;4.05;;;;;;;;;;5009334;28;20062;-71
2022/08/14 06:21:46;;;;;;;10.63;4.40;;;;;;;;;;5009124;28;20046;-69
2022/08/14 06:24:27;;;;;;;10.45;3.63;;;;;;;;;;5009123;28;20411;-71
2022/08/14 06:27:04;;;;;;;7.15;4.60;;;;;;;;;;5009322;28;20592;-69
2022/08/14 06:29:39;;;;;;;7.25;4.03;;;;;;;;;;4993732;28;20564;-70
2022/08/14 06:32:10;;;;;;;7.80;4.03;;;;;;;;;;5009158;28;20050;-69
2022/08/14 06:35:01;;;;;;;11.70;3.88;;;;;;;;;;5008949;28;20054;-69
2022/08/14 06:37:50;;;;;;;9.23;3.90;;;;;;;;;;4962249;28;20054;-72
2022/08/14 06:40:33;;;;;;;9.95;3.67;;;;;;;;;;4960353;28;20094;-72
2022/08/14 06:43:07;;;;;;;10.05;4.00;;;;;;;;;;4989111;28;20094;-70
2022/08/14 06:45:40;;;;;;;8.52;4.00;;;;;;;;;;4989375;28;20046;-68
2022/08/14 06:48:24;;;;;;;6.47;3.08;;;;;;;;;;4989577;28;20410;-69
2022/08/14 06:50:55;;;;;;;8.90;3.60;;;;;;;;;;4989066;28;20054;-69
2022/08/14 06:53:25;;;;;;;8.13;4.57;;;;;;;;;;4989442;28;20541;-69
2022/08/14 06:55:56;;;;;;;8.73;4.15;;;;;;;;;;4992457;28;20053;-70
2022/08/14 06:58:31;;;;;;;9.65;4.30;;;;;;;;;;5008653;28;20045;-69
2022/08/14 07:06:55;;;;;;;6.80;3.97;;;;;;;;;;5002490;28;20053;-71
2022/08/14 07:09:28;;;;;;;8.95;4.25;;;;;;;;;;4995801;28;20064;-68
2022/08/14 07:12:18;;;;;;;8.02;3.67;;;;;;;;;;5035758;28;20500;-70
2022/08/14 07:15:09;;;;;;;9.55;3.08;;;;;;;;;;5048619;28;20393;-69
2022/08/14 07:17:50;;;;;;;7.32;3.28;;;;;;;;;;5008388;28;20045;-70
2022/08/14 07:20:22;;;;;;;6.63;3.70;;;;;;;;;;5022862;28;20060;-69
2022/08/14 07:23:05;;;;;;;7.72;3.28;;;;;;;;;;5048238;28;20057;-70
2022/08/14 07:25:49;;;;;;;10.13;3.67;;;;;;;;;;5048305;28;20150;-69
2022/08/14 07:28:25;;;;;;;6.85;3.40;;;;;;;;;;5043955;28;20419;-69
2022/08/14 07:30:57;;;;;;;8.30;3.88;;;;;;;;;;5068251;28;20053;-68
2022/08/14 07:33:37;;;;;;;7.28;3.78;;;;;;;;;;5068083;28;20559;-70
2022/08/14 07:36:13;;;;;;;7.15;3.95;;;;;;;;;;4991158;28;20169;-70
2022/08/14 07:39:01;;;;;;;9.35;4.32;;;;;;;;;;5008178;28;20065;-69
2022/08/14 07:41:43;;;;;;;8.85;3.70;;;;;;;;;;5008456;28;20075;-72
2022/08/14 07:44:14;;;;;;;10.02;4.03;;;;;;;;;;4992356;28;20057;-68
2022/08/14 07:47:00;;;;;;;6.50;3.70;;;;;;;;;;4969111;28;20539;-69
2022/08/14 07:49:33;;;;;;;5.55;3.53;;;;;;;;;;4969095;28;20096;-68
2022/08/14 07:52:03;;;;;;;6.70;3.03;;;;;;;;;;4969134;28;20467;-68
2022/08/14 07:54:36;;;;;;;8.38;4.32;;;;;;;;;;4973772;28;20081;-68
2022/08/14 07:57:06;;;;;;;6.50;3.47;;;;;;;;;;4940039;28;20054;-68
2022/08/14 07:59:41;;;;;;;9.38;3.53;;;;;;;;;;4988286;28;20058;-68
2022/08/14 08:02:17;;;;;;;6.82;3.00;;;;;;;;;;4988493;28;20458;-67
2022/08/14 08:04:54;;;;;;;8.98;3.67;;;;;;;;;;4972307;28;20055;-68
2022/08/14 08:07:30;;;;;;;10.25;4.82;;;;;;;;;;4956143;28;20096;-69
2022/08/14 08:10:29;;;;;;;6.70;3.63;;;;;;;;;;4988301;28;20163;-68
2022/08/14 08:13:22;;;;;;;7.22;3.65;;;;;;;;;;4999682;28;20049;-69
2022/08/14 08:15:57;;;;;;;9.60;3.08;;;;;;;;;;4988417;28;21129;-68
2022/08/14 08:18:28;;;;;;;6.93;3.90;;;;;;;;;;4988438;28;20057;-69
2022/08/14 08:20:59;;;;;;;8.15;3.22;;;;;;;;;;4949586;28;20055;-69
2022/08/14 08:23:32;;;;;;;10.68;3.33;;;;;;;;;;4949932;28;20059;-69
2022/08/14 08:26:11;;;;;;;7.50;3.53;;;;;;;;;;4952681;28;20050;-69
2022/08/14 08:28:43;;;;;;;7.00;3.88;;;;;;;;;;4969096;28;20058;-69
2022/08/14 08:31:13;;;;;;;7.45;3.78;;;;;;;;;;4968861;28;20047;-69
2022/08/14 08:33:52;;;;;;;9.60;5.45;;;;;;;;;;4950720;28;20055;-68
2022/08/14 08:36:22;;;;;;;6.88;3.72;;;;;;;;;;4968931;28;20066;-68
2022/08/14 08:39:00;;;;;;;8.25;3.47;;;;;;;;;;4949393;28;20508;-68
2022/08/14 08:41:50;;;;;;;5.55;3.40;;;;;;;;;;4954014;28;20048;-68
2022/08/14 08:44:31;;;;;;;6.65;3.72;;;;;;;;;;4949353;28;20055;-69
2022/08/14 08:47:06;;;;;;;6.70;3.42;;;;;;;;;;4936857;28;20085;-72
2022/08/14 08:49:42;;;;;;;7.13;3.40;;;;;;;;;;4952735;28;20058;-69
2022/08/14 08:52:28;;;;;;;8.82;3.28;;;;;;;;;;4954437;28;20055;-71
2022/08/14 08:55:00;;;;;;;6.78;3.53;;;;;;;;;;5011335;28;20069;-69
2022/08/14 08:57:36;;;;;;;9.07;3.45;;;;;;;;;;4951182;28;20053;-68
2022/08/14 09:00:14;;;;;;;7.10;4.63;;;;;;;;;;4933466;29;20056;-69
2022/08/14 09:03:03;;;;;;;6.07;3.30;;;;;;;;;;4952566;28;20051;-68
2022/08/14 09:05:36;;;;;;;6.88;3.70;;;;;;;;;;4952761;28;20081;-69
2022/08/14 09:08:24;;;;;;;7.30;3.53;;;;;;;;;;4952221;28;20170;-70
2022/08/14 09:11:11;;;;;;;5.45;2.45;;;;;;;;;;4952567;28;20447;-69
2022/08/14 09:13:51;;;;;;;12.98;3.65;;;;;;;;;;4932706;29;20059;-68
2022/08/14 09:16:24;;;;;;;6.07;3.03;;;;;;;;;;4947653;28;20055;-69
2022/08/14 09:18:54;;;;;;;6.00;3.38;;;;;;;;;;4971657;28;20058;-68
2022/08/14 09:21:25;;;;;;;6.60;3.22;;;;;;;;;;4955705;28;20054;-72
2022/08/14 09:24:00;;;;;;;6.85;2.83;;;;;;;;;;4971727;28;20055;-68
2022/08/14 09:26:51;;;;;;;7.40;3.00;;;;;;;;;;4971458;28;20054;-69
2022/08/14 09:29:21;;;;;;;7.55;3.42;;;;;;;;;;4971792;28;20065;-68
2022/08/14 09:32:01;;;;;;;6.75;3.55;;;;;;;;;;4971834;28;20070;-69
2022/08/14 09:34:54;;;;;;;5.57;3.53;;;;;;;;;;4993321;28;20196;-71
2022/08/14 09:37:45;;;;;;;6.47;2.92;;;;;;;;;;5030243;28;20054;-68
2022/08/14 09:40:53;;;;;;;8.52;3.65;;;;;;;;;;5008048;28;20044;-69
2022/08/14 09:43:33;;;;;;;5.22;2.65;;;;;;;;;;5070305;28;20040;-68
2022/08/14 09:46:06;;;;;;;;;;;;;;;;;;5089651;28;20155;-69
2022/08/14 09:48:38;;;;;;;7.00;3.00;;;;;;;;;;5131196;27;19926;-68
2022/08/14 09:51:24;;;;;;;5.88;2.40;;;;;;;;;;5089779;28;20423;-69
2022/08/14 09:54:12;;;;;;;5.80;3.15;;;;;;;;;;5089885;28;20063;-68
2022/08/14 09:56:51;;;;;;;;;;;;;;;;;;5090667;28;20507;-69
2022/08/14 09:59:28;;;;;;;5.57;3.30;;;;;;;;;;5056175;28;20398;-68
2022/08/14 10:02:02;;;;;;;4.45;2.90;;;;;;;;;;5069356;28;20052;-68
2022/08/14 10:04:33;;;;;;;;;;;;;;;;;;5070114;28;20049;-68
2022/08/14 10:07:14;;;;;;;5.47;2.78;;;;;;;;;;5069084;28;19920;-68
2022/08/14 10:09:49;;;;;;;7.30;3.00;;;;;;;;;;5069448;28;20048;-69
2022/08/14 10:12:43;;;;;;;5.53;3.15;;;;;;;;;;5019359;28;20202;-68
2022/08/14 10:15:14;;;;;;;;;;;;;;;;;;5069785;28;20492;-69
2022/08/14 10:17:45;;;;;;;6.38;3.00;;;;;;;;;;5015638;28;19921;-69
2022/08/14 10:20:21;;;;;;;;;;;;;;;;;;5017599;28;20056;-69
2022/08/14 10:23:16;;;;;;;5.72;3.22;;;;;;;;;;5032677;28;19921;-68
2022/08/14 10:25:51;;;;;;;5.82;3.00;;;;;;;;;;5049060;28;20551;-73
2022/08/14 10:28:23;;;;;;;7.45;2.88;;;;;;;;;;5049199;28;20057;-69
2022/08/14 10:31:30;;;;;;;7.07;2.92;;;;;;;;;;5049134;28;20064;-68
2022/08/14 10:34:19;;;;;;;6.93;3.60;;;;;;;;;;5023405;28;20050;-69
2022/08/14 10:37:15;;;;;;;7.55;3.22;;;;;;;;;;5009544;28;20061;-68
2022/08/14 10:40:07;;;;;;;5.53;2.50;;;;;;;;;;5035984;28;20391;-69
2022/08/14 10:42:58;;;;;;;6.07;3.30;;;;;;;;;;5028520;28;20057;-69
2022/08/14 10:45:34;;;;;;;5.85;3.35;;;;;;;;;;5029106;28;20057;-69
2022/08/14 10:48:17;;;;;;;7.55;3.67;;;;;;;;;;5015664;28;20056;-69
2022/08/14 10:51:02;;;;;;;6.05;3.13;;;;;;;;;;5015576;28;20053;-73
2022/08/14 10:53:37;;;;;;;7.75;3.08;;;;;;;;;;5048822;28;20056;-69
2022/08/14 10:56:12;;;;;;;7.75;3.28;;;;;;;;;;5044862;28;20056;-69
2022/08/14 10:59:07;;;;;;;8.10;5.15;;;;;;;;;;5028682;28;20049;-69
2022/08/14 11:01:39;;;;;;;7.13;2.80;;;;;;;;;;5028532;28;20703;-69
2022/08/14 11:04:27;;;;;;;7.75;3.55;;;;;;;;;;5028724;28;20050;-70
2022/08/14 11:06:59;;;;;;;6.25;3.63;;;;;;;;;;5028602;28;20077;-69
2022/08/14 11:09:29;;;;;;;12.73;4.43;;;;;;;;;;4994728;28;20061;-68
2022/08/14 11:12:01;;;;;;;7.72;3.80;;;;;;;;;;5059410;28;20040;-70
2022/08/14 11:14:53;;;;;;;;;;;;;;;;;;5008583;28;20064;-69
2022/08/14 11:17:27;;;;;;;8.68;3.70;;;;;;;;;;4976099;28;19922;-68
2022/08/14 11:20:02;;;;;;;6.45;3.33;;;;;;;;;;5012641;28;20060;-68
2022/08/14 11:22:33;;;;;;;9.32;4.18;;;;;;;;;;5028552;28;20045;-69
2022/08/14 11:25:28;;;;;;;8.35;4.00;;;;;;;;;;5028550;28;20041;-68
2022/08/14 11:28:15;;;;;;;10.07;4.22;;;;;;;;;;5011619;28;20053;-71
2022/08/14 11:30:49;;;;;;;9.98;4.47;;;;;;;;;;4995463;28;20053;-67
2022/08/14 11:33:28;;;;;;;9.65;4.22;;;;;;;;;;5034764;28;20068;-72
2022/08/14 11:36:00;;;;;;;7.78;3.50;;;;;;;;;;5048282;28;20053;-68
2022/08/14 11:38:46;;;;;;;8.25;3.70;;;;;;;;;;5047862;28;20736;-69
2022/08/14 11:41:16;;;;;;;10.63;4.75;;;;;;;;;;5031286;28;20041;-69
2022/08/14 11:43:48;;;;;;;10.48;4.72;;;;;;;;;;5014746;28;20441;-69
2022/08/14 11:46:27;;;;;;;10.85;6.40;;;;;;;;;;5000099;28;20049;-70
2022/08/14 11:49:06;;;;;;;10.52;5.55;;;;;;;;;;5042672;28;20121;-68
2022/08/14 11:51:39;;;;;;;15.30;8.40;;;;;;;;;;5036280;28;20063;-70
2022/08/14 11:54:22;;;;;;;14.35;7.07;;;;;;;;;;5067693;28;20055;-68
2022/08/14 11:57:04;;;;;;;12.02;5.85;;;;;;;;;;5067882;28;20060;-68
2022/08/14 11:59:34;;;;;;;9.85;5.80;;;;;;;;;;5068034;28;20053;-69
2022/08/14 12:02:16;;;;;;;13.80;6.47;;;;;;;;;;5050936;28;20755;-68
2022/08/14 12:05:07;;;;;;;15.90;7.70;;;;;;;;;;5067797;28;20507;-70
2022/08/14 12:07:49;;;;;;;12.40;6.45;;;;;;;;;;5067894;28;20052;-69
2022/08/14 12:10:22;;;;;;;10.20;5.15;;;;;;;;;;5007973;28;20058;-70
2022/08/14 12:12:56;;;;;;;9.98;6.00;;;;;;;;;;5021535;28;20053;-68
2022/08/14 12:15:34;;;;;;;10.23;4.63;;;;;;;;;;5027784;28;20053;-69
2022/08/14 12:18:13;;;;;;;5.90;3.13;;;;;;;;;;5013403;28;20076;-69
2022/08/14 12:20:48;;;;;;;7.00;3.70;;;;;;;;;;5028953;28;20053;-68
2022/08/14 12:23:24;;;;;;;8.48;3.63;;;;;;;;;;5015965;28;20052;-69
2022/08/14 12:26:03;;;;;;;9.38;4.00;;;;;;;;;;5031540;28;20057;-70
2022/08/14 12:29:15;;;;;;;7.18;3.80;;;;;;;;;;4972416;28;20062;-69
2022/08/14 12:31:45;;;;;;;5.80;2.83;;;;;;;;;;4968706;28;20065;-69
2022/08/14 12:34:19;;;;;;;8.68;5.25;;;;;;;;;;4917828;29;20195;-71
2022/08/14 12:37:05;;;;;;;23.35;10.80;;;;;;;;;;4934109;29;20075;-69
2022/08/14 12:39:36;;;;;;;9.43;4.32;;;;;;;;;;4934114;29;20066;-69
2022/08/14 12:42:09;;;;;;;6.78;3.00;;;;;;;;;;4918854;29;20052;-69
2022/08/14 12:44:59;;;;;;;8.73;4.88;;;;;;;;;;4934031;29;20055;-69
2022/08/14 12:47:32;;;;;;;6.40;3.20;;;;;;;;;;4966265;28;20053;-68
2022/08/14 12:50:03;;;;;;;6.72;3.10;;;;;;;;;;4992061;28;20054;-68
2022/08/14 12:52:40;;;;;;;7.45;4.97;;;;;;;;;;4991600;28;20058;-69
2022/08/14 12:55:34;;;;;;;8.35;4.68;;;;;;;;;;4991674;28;20054;-69
2022/08/14 12:58:29;;;;;;;7.28;3.10;;;;;;;;;;4978384;28;20391;-68
2022/08/14 13:01:23;;;;;;;8.50;3.58;;;;;;;;;;4991540;28;20053;-68
2022/08/14 13:04:07;;;;;;;8.38;4.00;;;;;;;;;;4976055;28;20050;-67
2022/08/14 13:06:39;;;;;;;;;;;;;;;;;;5032710;28;20056;-68
2022/08/14 13:09:14;;;;;;;6.75;3.38;;;;;;;;;;5010679;28;19929;-68
2022/08/14 13:11:49;;;;;;;6.32;3.70;;;;;;;;;;5011166;28;20066;-67
2022/08/14 13:14:47;;;;;;;10.60;3.63;;;;;;;;;;5010619;28;20061;-68
2022/08/14 13:17:19;;;;;;;8.10;3.72;;;;;;;;;;5010950;28;20537;-67
2022/08/14 13:19:55;;;;;;;8.75;5.28;;;;;;;;;;4990908;28;20046;-71
2022/08/14 13:22:29;;;;;;;14.18;8.80;;;;;;;;;;4951918;28;20512;-68
2022/08/14 13:25:21;;;;;;;8.05;4.07;;;;;;;;;;4962228;28;20074;-67
2022/08/14 13:27:56;;;;;;;8.23;4.10;;;;;;;;;;4951913;29;20484;-67
2022/08/14 13:30:27;;;;;;;76.70;41.80;;;;;;;;;;4952085;29;20124;-66
2022/08/14 13:32:59;;;;;;;28.63;16.10;;;;;;;;;;4950920;28;20063;-68
2022/08/14 13:35:29;;;;;;;;;;;;;;;;;;4952977;29;20066;-68
2022/08/14 13:38:00;;;;;;;5.95;3.50;;;;;;;;;;4952227;29;19942;-68
2022/08/14 13:40:31;;;;;;;10.73;6.65;;;;;;;;;;4913710;29;20052;-68
2022/08/14 13:43:08;;;;;;;7.07;4.40;;;;;;;;;;4913350;29;20059;-72
2022/08/14 13:45:38;;;;;;;;;;;;;;;;;;4914331;28;20055;-68
2022/08/14 13:48:30;;;;;;;7.80;3.03;;;;;;;;;;4971191;28;19922;-67
2022/08/14 13:51:06;;;;;;;6.68;3.17;;;;;;;;;;4951465;28;20519;-69
2022/08/14 13:53:46;;;;;;;6.35;3.30;;;;;;;;;;4932497;29;20067;-70
2022/08/14 13:56:39;;;;;;;;;;;;;;;;;;4935621;28;20063;-68
2022/08/14 13:59:10;;;;;;;7.63;3.75;;;;;;;;;;4949255;28;19923;-66
2022/08/14 14:01:50;;;;;;;10.95;5.57;;;;;;;;;;4917874;29;20056;-67
2022/08/14 14:04:23;;;;;;;6.25;3.92;;;;;;;;;;4880917;29;20048;-67
2022/08/14 14:06:54;;;;;;;9.48;5.40;;;;;;;;;;4894631;29;20506;-67
2022/08/14 14:09:32;;;;;;;9.60;5.22;;;;;;;;;;4913368;29;20071;-67
2022/08/14 14:12:22;;;;;;;12.13;6.97;;;;;;;;;;4913265;29;20067;-67
2022/08/14 14:15:13;;;;;;;8.15;4.07;;;;;;;;;;4931899;29;20436;-67
2022/08/14 14:17:46;;;;;;;10.10;5.25;;;;;;;;;;4886009;29;20416;-71
2022/08/14 14:20:19;;;;;;;7.80;4.20;;;;;;;;;;4932152;29;20059;-67
2022/08/14 14:23:09;;;;;;;10.93;5.75;;;;;;;;;;4939888;29;20690;-68
2022/08/14 14:25:46;;;;;;;5.75;2.63;;;;;;;;;;4935429;29;20067;-67
2022/08/14 14:28:30;;;;;;;10.77;3.72;;;;;;;;;;4942177;28;20411;-72
2022/08/14 14:31:02;;;;;;;9.30;5.97;;;;;;;;;;4989697;28;20054;-67
2022/08/14 14:33:41;;;;;;;5.32;3.13;;;;;;;;;;4989785;28;20054;-67
2022/08/14 14:36:25;;;;;;;6.20;3.70;;;;;;;;;;5001205;28;20102;-67
2022/08/14 14:39:02;;;;;;;5.40;2.67;;;;;;;;;;5029255;28;20066;-68
2022/08/14 14:41:42;;;;;;;4.60;2.85;;;;;;;;;;5041576;28;20048;-76
2022/08/14 14:44:13;;;;;;;5.20;2.55;;;;;;;;;;5048675;28;20556;-68
2022/08/14 14:46:48;;;;;;;15.50;9.15;;;;;;;;;;4999102;28;20054;-70
2022/08/14 14:49:23;;;;;;;7.03;3.78;;;;;;;;;;5048705;28;20858;-68
2022/08/14 14:52:09;;;;;;;8.00;4.53;;;;;;;;;;5000049;28;20039;-67
2022/08/14 14:54:57;;;;;;;4.93;2.95;;;;;;;;;;4973223;28;20061;-68
2022/08/14 14:57:30;;;;;;;8.45;3.55;;;;;;;;;;5008723;28;20056;-67
2022/08/14 15:00:12;;;;;;;7.53;3.25;;;;;;;;;;5009087;28;20053;-76
2022/08/14 15:02:50;;;;;;;5.05;2.55;;;;;;;;;;5008669;28;20058;-68
2022/08/14 15:05:22;;;;;;;4.45;2.35;;;;;;;;;;5009202;28;20069;-67
2022/08/14 15:07:56;;;;;;;11.15;3.78;;;;;;;;;;5008852;28;20405;-67
2022/08/14 15:10:27;;;;;;;4.97;2.78;;;;;;;;;;5008560;28;20058;-68
2022/08/14 15:13:05;;;;;;;5.40;2.40;;;;;;;;;;5027902;28;20652;-65
2022/08/14 15:15:37;;;;;;;5.47;3.00;;;;;;;;;;5028320;28;20061;-68
2022/08/14 15:18:10;;;;;;;4.97;2.28;;;;;;;;;;4978739;28;20417;-67
2022/08/14 15:21:01;;;;;;;3.92;1.52;;;;;;;;;;5005871;28;20396;-67
2022/08/14 15:23:33;;;;;;;4.75;2.65;;;;;;;;;;4989013;28;20577;-68
2022/08/14 15:26:14;;;;;;;5.30;2.42;;;;;;;;;;4989102;28;20046;-67
2022/08/14 15:29:04;;;;;;;3.78;2.55;;;;;;;;;;4992094;28;20049;-70
2022/08/14 15:31:35;;;;;;;5.05;2.17;;;;;;;;;;4960094;28;20058;-70
2022/08/14 15:34:10;;;;;;;6.68;3.05;;;;;;;;;;4949504;28;20056;-66
2022/08/14 15:37:03;;;;;;;4.75;2.40;;;;;;;;;;4950099;28;20071;-69
2022/08/14 15:39:39;;;;;;;3.85;2.33;;;;;;;;;;4950433;28;20059;-69
2022/08/14 15:42:10;;;;;;;3.90;2.10;;;;;;;;;;4949867;28;20062;-69
2022/08/14 15:44:47;;;;;;;5.97;2.67;;;;;;;;;;4949999;28;20062;-68
2022/08/14 15:47:31;;;;;;;4.95;2.80;;;;;;;;;;4933614;29;20530;-67
2022/08/14 15:50:08;;;;;;;3.63;2.40;;;;;;;;;;4941323;28;20051;-68
2022/08/14 15:52:40;;;;;;;3.88;2.33;;;;;;;;;;4968939;28;20089;-69
2022/08/14 15:55:14;;;;;;;5.07;2.70;;;;;;;;;;4969298;28;20062;-68
2022/08/14 15:57:45;;;;;;;5.13;2.47;;;;;;;;;;4972986;28;20054;-72
2022/08/14 16:03:25;;;;;;;3.72;2.17;;;;;;;;;;4973411;28;20055;-67
2022/08/14 16:06:11;;;;;;;4.65;2.65;;;;;;;;;;4972881;28;20050;-68
2022/08/14 16:08:50;;;;;;;5.35;3.17;;;;;;;;;;4973210;28;20057;-67
2022/08/14 16:11:28;;;;;;;5.18;2.65;;;;;;;;;;4980789;28;20042;-67